createdAt,value
2023-02-11T00:00:44.913Z,73.78
2023-02-11T00:03:29.951Z,73.64
2023-02-11T00:06:11.851Z,73.51
2023-02-11T00:08:48.323Z,73.46
2023-02-11T00:11:34.857Z,73.31
2023-02-11T00:14:10.862Z,73.19
2023-02-11T00:16:48.058Z,73.45
2023-02-11T00:19:25.098Z,72.96
2023-02-11T00:22:02.672Z,72.88
2023-02-11T00:24:40.121Z,72.28
2023-02-11T00:27:10.464Z,72.71
2023-02-11T00:29:49.055Z,72.48
2023-02-11T00:32:26.473Z,71.83
2023-02-11T00:35:03.726Z,71.99
2023-02-11T00:37:41.053Z,71.67
2023-02-11T00:40:12.304Z,70.91
2023-02-11T00:42:44.993Z,70.92
2023-02-11T00:45:23.696Z,70.83
2023-02-11T00:48:00.563Z,70.54
2023-02-11T00:50:37.308Z,70.52
2023-02-11T00:53:10.333Z,70.64
2023-02-11T00:55:47.807Z,70.26
2023-02-11T00:58:24.829Z,70.37
2023-02-11T01:01:02.250Z,70.40
2023-02-11T01:03:41.391Z,70.85
2023-02-11T01:06:12.548Z,70.60
2023-02-11T01:08:50.413Z,70.35
2023-02-11T01:11:27.042Z,70.61
2023-02-11T01:14:03.554Z,70.52
2023-02-11T01:16:34.046Z,70.72
2023-02-11T01:19:11.028Z,70.62
2023-02-11T01:21:48.041Z,70.54
2023-02-11T01:24:24.933Z,70.84
2023-02-11T01:26:55.823Z,70.59
2023-02-11T01:29:31.049Z,71.45
2023-02-11T01:32:08.134Z,71.28
2023-02-11T01:34:45.521Z,71.27
2023-02-11T01:37:24.808Z,70.98
2023-02-11T01:40:03.326Z,70.98
2023-02-11T01:42:40.798Z,71.31
2023-02-11T01:45:50.238Z,71.18
2023-02-11T01:48:51.226Z,71.28
2023-02-11T01:51:35.020Z,71.14
2023-02-11T01:54:38.433Z,71.32
2023-02-11T01:57:25.575Z,70.78
2023-02-11T02:00:24.795Z,70.47
2023-02-11T02:03:22.927Z,71.04
2023-02-11T02:06:29.267Z,70.85
2023-02-11T02:09:31.686Z,70.76
2023-02-11T02:12:08.683Z,70.77
2023-02-11T02:14:46.014Z,71.18
2023-02-11T02:17:46.880Z,70.89
2023-02-11T02:21:00.484Z,70.75
2023-02-11T02:24:07.297Z,70.94
2023-02-11T02:27:30.062Z,70.76
2023-02-11T02:31:15.352Z,70.60
2023-02-11T02:34:06.459Z,70.91
2023-02-11T02:37:23.131Z,70.76
2023-02-11T02:40:04.309Z,70.82
2023-02-11T02:42:42.891Z,70.63
2023-02-11T02:45:21.118Z,70.72
2023-02-11T02:47:58.381Z,70.70
2023-02-11T02:50:39.561Z,70.72
2023-02-11T02:53:28.311Z,70.35
2023-02-11T02:56:39.853Z,70.78
2023-02-11T02:59:38.008Z,70.82
2023-02-11T03:02:31.136Z,70.31
2023-02-11T03:05:21.772Z,70.39
2023-02-11T03:08:14.735Z,70.14
2023-02-11T03:10:55.704Z,70.37
2023-02-11T03:13:35.493Z,70.00
2023-02-11T03:16:24.639Z,70.37
2023-02-11T03:19:20.744Z,70.56
2023-02-11T03:21:58.096Z,70.38
2023-02-11T03:24:41.477Z,70.01
2023-02-11T03:27:32.829Z,69.88
2023-02-11T03:30:21.663Z,69.83
2023-02-11T03:33:04.038Z,69.96
2023-02-11T03:35:58.808Z,69.86
2023-02-11T03:38:45.412Z,69.95
2023-02-11T03:41:24.878Z,69.86
2023-02-11T03:44:02.728Z,69.67
2023-02-11T03:46:49.716Z,69.38
2023-02-11T03:49:29.245Z,69.21
2023-02-11T03:52:11.573Z,68.90
2023-02-11T03:54:53.239Z,69.23
2023-02-11T03:57:30.803Z,69.47
2023-02-11T04:00:10.000Z,69.00
2023-02-11T04:02:46.980Z,68.57
2023-02-11T04:05:24.391Z,68.32
2023-02-11T04:08:02.048Z,68.36
2023-02-11T04:10:39.522Z,68.18
2023-02-11T04:13:16.337Z,68.34
2023-02-11T04:15:54.690Z,68.52
2023-02-11T04:18:31.980Z,68.30
2023-02-11T04:21:09.557Z,68.26
2023-02-11T04:23:47.026Z,68.25
2023-02-11T04:26:17.384Z,68.14
2023-02-11T04:28:55.219Z,68.52
2023-02-11T04:31:32.226Z,68.14
2023-02-11T04:34:09.776Z,67.88
2023-02-11T04:36:46.531Z,67.95
2023-02-11T04:39:24.011Z,67.91
2023-02-11T04:42:01.166Z,68.29
2023-02-11T04:44:38.502Z,68.37
2023-02-11T04:47:16.150Z,67.95
2023-02-11T04:49:53.037Z,68.02
2023-02-11T04:52:30.431Z,68.07
2023-02-11T04:55:00.790Z,67.88
2023-02-11T04:57:35.844Z,67.89
2023-02-11T05:00:14.268Z,67.39
2023-02-11T05:02:51.317Z,67.95
2023-02-11T05:05:28.904Z,67.81
2023-02-11T05:08:06.729Z,67.97
2023-02-11T05:10:48.334Z,67.84
2023-02-11T05:13:25.850Z,67.89
2023-02-11T05:16:03.046Z,67.68
2023-02-11T05:18:41.732Z,67.56
2023-02-11T05:21:23.112Z,67.71
2023-02-11T05:23:59.791Z,67.55
2023-02-11T05:26:36.680Z,67.83
2023-02-11T05:29:13.697Z,67.60
2023-02-11T05:31:43.732Z,67.77
2023-02-11T05:34:17.280Z,67.33
2023-02-11T05:36:55.119Z,67.32
2023-02-11T05:39:32.408Z,67.33
2023-02-11T05:42:10.268Z,67.25
2023-02-11T05:44:50.314Z,66.93
2023-02-11T05:47:28.560Z,66.98
2023-02-11T05:50:06.083Z,67.01
2023-02-11T05:52:42.667Z,67.11
2023-02-11T05:55:20.285Z,67.06
2023-02-11T05:57:58.478Z,66.93
2023-02-11T06:00:35.366Z,66.88
2023-02-11T06:03:13.098Z,66.95
2023-02-11T06:05:50.886Z,66.69
2023-02-11T06:08:21.172Z,66.77
2023-02-11T06:10:59.214Z,66.72
2023-02-11T06:13:37.062Z,66.60
2023-02-11T06:16:14.648Z,66.59
2023-02-11T06:18:45.007Z,66.45
2023-02-11T06:21:23.869Z,66.48
2023-02-11T06:24:03.537Z,66.34
2023-02-11T06:26:41.218Z,66.43
2023-02-11T06:29:17.823Z,66.44
2023-02-11T06:31:54.625Z,66.38
2023-02-11T06:34:33.829Z,66.63
2023-02-11T06:37:05.493Z,66.34
2023-02-11T06:39:39.066Z,66.47
2023-02-11T06:42:16.655Z,66.22
2023-02-11T06:44:53.520Z,66.47
2023-02-11T06:47:30.609Z,66.59
2023-02-11T06:50:08.243Z,66.25
2023-02-11T06:52:45.661Z,66.52
2023-02-11T06:55:22.938Z,66.13
2023-02-11T06:58:00.260Z,66.23
2023-02-11T07:00:38.905Z,66.29
2023-02-11T07:03:16.505Z,66.61
2023-02-11T07:05:53.781Z,66.23
2023-02-11T07:08:24.005Z,66.00
2023-02-11T07:10:59.665Z,66.50
2023-02-11T07:13:36.705Z,66.40
2023-02-11T07:16:16.079Z,66.33
2023-02-11T07:18:52.359Z,66.72
2023-02-11T07:21:24.881Z,66.96
2023-02-11T07:23:56.369Z,66.64
2023-02-11T07:26:27.835Z,67.44
2023-02-11T07:29:00.797Z,67.57
2023-02-11T07:31:38.279Z,67.54
2023-02-11T07:34:15.309Z,68.41
2023-02-11T07:36:51.879Z,68.95
2023-02-11T07:39:23.542Z,68.62
2023-02-11T07:41:55.845Z,68.94
2023-02-11T07:44:27.508Z,69.28
2023-02-11T07:47:01.636Z,69.64
2023-02-11T07:49:39.499Z,70.44
2023-02-11T07:52:16.263Z,70.71
2023-02-11T07:54:53.673Z,70.97
2023-02-11T07:57:31.311Z,71.68
2023-02-11T08:00:01.824Z,71.45
2023-02-11T08:02:39.923Z,71.45
2023-02-11T08:05:16.547Z,71.44
2023-02-11T08:07:47.545Z,71.97
2023-02-11T08:10:19.293Z,72.38
2023-02-11T08:12:56.537Z,72.14
2023-02-11T08:15:33.288Z,73.21
2023-02-11T08:18:03.779Z,72.88
2023-02-11T08:20:42.138Z,73.51
2023-02-11T08:23:20.208Z,73.57
2023-02-11T08:26:02.250Z,74.28
2023-02-11T08:28:42.145Z,74.54
2023-02-11T08:31:22.390Z,74.52
2023-02-11T08:34:02.688Z,74.97
2023-02-11T08:36:43.234Z,74.48
2023-02-11T08:39:22.284Z,74.40
2023-02-11T08:41:57.800Z,74.70
2023-02-11T08:44:34.120Z,74.89
2023-02-11T08:47:04.710Z,74.88
2023-02-11T08:49:42.882Z,74.41
2023-02-11T08:52:20.699Z,75.23
2023-02-11T08:54:57.989Z,75.16
2023-02-11T08:57:34.647Z,74.92
2023-02-11T09:00:13.719Z,75.23
2023-02-11T09:02:50.074Z,74.82
2023-02-11T09:05:20.802Z,74.79
2023-02-11T09:07:51.909Z,75.09
2023-02-11T09:10:23.385Z,74.94
2023-02-11T09:13:01.700Z,75.02
2023-02-11T09:15:39.717Z,75.15
2023-02-11T09:18:17.501Z,74.57
2023-02-11T09:20:54.309Z,74.61
2023-02-11T09:23:25.205Z,74.84
2023-02-11T09:25:57.571Z,74.72
2023-02-11T09:28:30.042Z,74.71
2023-02-11T09:31:08.471Z,74.87
2023-02-11T09:33:49.670Z,74.59
2023-02-11T09:36:30.515Z,74.54
2023-02-11T09:39:06.167Z,74.78
2023-02-11T09:41:51.699Z,74.73
2023-02-11T09:44:31.965Z,75.00
2023-02-11T09:47:29.953Z,75.07
2023-02-11T09:50:14.625Z,75.40
2023-02-11T09:53:00.280Z,76.08
2023-02-11T09:55:45.813Z,76.83
2023-02-11T09:58:42.727Z,77.39
2023-02-11T10:01:31.855Z,78.19
2023-02-11T10:04:38.121Z,78.20
2023-02-11T10:07:36.549Z,78.43
2023-02-11T10:10:51.840Z,78.83
2023-02-11T10:13:48.234Z,78.94
2023-02-11T10:16:48.708Z,78.95
2023-02-11T10:19:37.178Z,78.66
2023-02-11T10:22:23.127Z,78.99
2023-02-11T10:25:07.053Z,79.06
2023-02-11T10:27:43.723Z,79.08
2023-02-11T10:31:07.653Z,79.38
2023-02-11T10:34:10.834Z,79.02
2023-02-11T10:36:48.682Z,79.17
2023-02-11T10:39:24.458Z,79.64
2023-02-11T10:42:15.704Z,79.66
2023-02-11T10:45:07.758Z,79.39
2023-02-11T10:47:45.447Z,79.71
2023-02-11T10:50:27.409Z,79.40
2023-02-11T10:53:24.737Z,79.24
2023-02-11T10:56:04.070Z,79.74
2023-02-11T10:58:57.539Z,79.63
2023-02-11T11:01:53.099Z,79.66
2023-02-11T11:04:41.730Z,79.39
2023-02-11T11:07:23.382Z,79.63
2023-02-11T11:10:04.215Z,79.75
2023-02-11T11:12:53.659Z,79.76
2023-02-11T11:15:33.289Z,79.57
2023-02-11T11:18:23.609Z,79.33
2023-02-11T11:21:08.217Z,79.25
2023-02-11T11:23:49.696Z,79.55
2023-02-11T11:26:27.196Z,79.32
2023-02-11T11:29:39.117Z,79.40
2023-02-11T11:32:37.620Z,79.49
2023-02-11T11:35:27.920Z,79.41
2023-02-11T11:38:15.948Z,79.64
2023-02-11T11:41:16.901Z,79.65
2023-02-11T11:44:31.687Z,79.57
2023-02-11T11:47:31.380Z,79.74
2023-02-11T11:50:57.509Z,80.20
2023-02-11T11:53:43.177Z,80.65
2023-02-11T11:56:36.914Z,80.60
2023-02-11T11:59:18.896Z,80.69
2023-02-11T12:02:22.882Z,80.94
2023-02-11T12:05:28.716Z,81.20
2023-02-11T12:08:24.590Z,81.16
2023-02-11T12:11:22.470Z,81.26
2023-02-11T12:14:01.743Z,81.06
2023-02-11T12:17:03.028Z,80.98
2023-02-11T12:20:32.637Z,81.14
2023-02-11T12:23:45.486Z,80.80
2023-02-11T12:26:38.998Z,80.31
2023-02-11T12:29:45.494Z,80.28
2023-02-11T12:32:34.132Z,80.20
2023-02-11T12:35:15.702Z,80.00
2023-02-11T12:38:19.110Z,80.00
2023-02-11T12:40:57.784Z,79.96
2023-02-11T12:43:44.490Z,80.05
2023-02-11T12:46:44.764Z,80.11
2023-02-11T12:49:42.331Z,80.16
2023-02-11T12:52:29.771Z,79.92
2023-02-11T12:55:29.972Z,79.81
2023-02-11T12:58:02.292Z,79.69
2023-02-11T13:00:48.946Z,79.87
2023-02-11T13:03:39.592Z,79.41
2023-02-11T13:06:40.755Z,79.48
2023-02-11T13:09:28.697Z,79.40
2023-02-11T13:12:28.289Z,79.60
2023-02-11T13:15:09.021Z,79.46
2023-02-11T13:18:30.713Z,79.21
2023-02-11T13:21:14.593Z,79.11
2023-02-11T13:24:17.985Z,79.01
2023-02-11T13:27:16.565Z,79.29
2023-02-11T13:30:37.504Z,79.03
2023-02-11T13:33:35.479Z,78.83
2023-02-11T13:36:14.401Z,79.17
2023-02-11T13:39:08.274Z,79.24
2023-02-11T13:41:45.212Z,79.32
2023-02-11T13:44:30.447Z,79.55
2023-02-11T13:47:28.772Z,79.77
2023-02-11T13:50:11.364Z,79.70
2023-02-11T13:52:43.355Z,79.79
2023-02-11T13:55:28.672Z,79.87
2023-02-11T13:58:17.233Z,79.92
2023-02-11T14:00:58.912Z,80.01
2023-02-11T14:03:57.145Z,80.04
2023-02-11T14:06:52.845Z,79.78
2023-02-11T14:09:41.549Z,79.99
2023-02-11T14:12:36.024Z,79.99
2023-02-11T14:15:12.956Z,80.01
2023-02-11T14:17:44.019Z,80.10
2023-02-11T14:20:54.805Z,80.06
2023-02-11T14:23:33.269Z,80.08
2023-02-11T14:26:20.373Z,79.95
2023-02-11T14:29:20.259Z,79.81
2023-02-11T14:32:32.323Z,80.03
2023-02-11T14:35:26.854Z,79.85
2023-02-11T14:38:28.994Z,79.78
2023-02-11T14:41:22.497Z,79.78
2023-02-11T14:44:13.354Z,79.78
2023-02-11T14:46:49.440Z,79.83
2023-02-11T14:49:41.277Z,79.82
2023-02-11T14:52:37.796Z,79.88
2023-02-11T14:55:38.390Z,80.16
2023-02-11T14:58:32.946Z,80.13
2023-02-11T15:01:26.554Z,80.82
2023-02-11T15:03:59.601Z,80.39
2023-02-11T15:06:41.851Z,80.66
2023-02-11T15:09:34.433Z,80.67
2023-02-11T15:12:29.326Z,80.69
2023-02-11T15:15:07.385Z,80.85
2023-02-11T15:17:44.588Z,80.74
2023-02-11T15:20:33.731Z,80.89
2023-02-11T15:23:24.765Z,80.92
2023-02-11T15:26:05.106Z,81.31
2023-02-11T15:28:36.300Z,81.46
2023-02-11T15:31:18.575Z,81.17
2023-02-11T15:33:49.439Z,81.15
2023-02-11T15:36:34.747Z,81.26
2023-02-11T15:39:41.604Z,81.21
2023-02-11T15:42:43.838Z,80.99
2023-02-11T15:45:15.327Z,80.61
2023-02-11T15:47:55.780Z,80.71
2023-02-11T15:50:37.465Z,80.97
2023-02-11T15:53:46.370Z,80.98
2023-02-11T15:56:44.840Z,81.00
2023-02-11T15:59:49.493Z,81.01
2023-02-11T16:02:36.896Z,80.85
2023-02-11T16:05:38.868Z,80.76
2023-02-11T16:08:30.152Z,80.82
2023-02-11T16:11:12.094Z,80.72
2023-02-11T16:13:49.269Z,80.98
2023-02-11T16:16:35.735Z,80.92
2023-02-11T16:19:19.804Z,81.08
2023-02-11T16:21:51.193Z,81.03
2023-02-11T16:24:34.760Z,81.18
2023-02-11T16:27:25.177Z,81.39
2023-02-11T16:29:57.355Z,81.14
2023-02-11T16:32:35.720Z,81.25
2023-02-11T16:35:15.428Z,81.30
2023-02-11T16:37:50.541Z,81.23
2023-02-11T16:40:28.111Z,81.41
2023-02-11T16:43:05.660Z,81.40
2023-02-11T16:45:46.780Z,81.31
2023-02-11T16:48:22.855Z,80.84
2023-02-11T16:50:54.075Z,80.81
2023-02-11T16:53:33.925Z,80.86
2023-02-11T16:56:18.138Z,81.09
2023-02-11T16:58:49.356Z,80.68
2023-02-11T17:01:19.909Z,80.66
2023-02-11T17:03:51.982Z,80.51
2023-02-11T17:06:29.529Z,80.73
2023-02-11T17:09:09.074Z,80.74
2023-02-11T17:11:46.546Z,80.50
2023-02-11T17:14:23.958Z,80.26
2023-02-11T17:17:02.101Z,80.47
2023-02-11T17:19:40.518Z,80.23
2023-02-11T17:22:18.990Z,80.43
2023-02-11T17:24:51.612Z,80.15
2023-02-11T17:27:29.915Z,80.43
2023-02-11T17:30:01.741Z,80.25
2023-02-11T17:32:38.441Z,80.21
2023-02-11T17:35:16.244Z,80.28
2023-02-11T17:37:52.090Z,80.18
2023-02-11T17:40:29.406Z,80.28
2023-02-11T17:43:08.089Z,79.90
2023-02-11T17:45:48.682Z,79.81
2023-02-11T17:48:26.282Z,79.97
2023-02-11T17:51:03.813Z,79.89
2023-02-11T17:53:41.167Z,79.85
2023-02-11T17:56:18.568Z,79.94
2023-02-11T17:58:54.050Z,79.65
2023-02-11T18:01:34.247Z,79.56
2023-02-11T18:04:07.560Z,79.77
2023-02-11T18:06:40.096Z,79.92
2023-02-11T18:09:18.036Z,79.75
2023-02-11T18:11:53.197Z,79.63
2023-02-11T18:14:23.618Z,79.52
2023-02-11T18:16:54.126Z,79.46
2023-02-11T18:19:25.108Z,79.22
2023-02-11T18:21:58.554Z,79.39
2023-02-11T18:24:32.044Z,79.57
2023-02-11T18:27:03.210Z,79.46
2023-02-11T18:29:41.720Z,79.37
2023-02-11T18:32:14.320Z,79.41
2023-02-11T18:34:51.899Z,79.26
2023-02-11T18:37:22.506Z,79.36
2023-02-11T18:39:55.235Z,79.28
2023-02-11T18:42:27.895Z,78.98
2023-02-11T18:45:15.456Z,79.21
2023-02-11T18:47:52.784Z,79.34
2023-02-11T18:50:29.856Z,79.32
2023-02-11T18:53:06.007Z,79.12
2023-02-11T18:55:46.214Z,79.11
2023-02-11T18:58:18.039Z,79.17
2023-02-11T19:00:54.189Z,79.27
2023-02-11T19:03:32.299Z,78.99
2023-02-11T19:06:05.414Z,79.26
2023-02-11T19:08:41.260Z,78.78
2023-02-11T19:11:20.395Z,78.77
2023-02-11T19:13:52.907Z,79.20
2023-02-11T19:16:31.622Z,79.01
2023-02-11T19:19:03.093Z,78.93
2023-02-11T19:21:40.628Z,78.82
2023-02-11T19:24:20.243Z,78.46
2023-02-11T19:26:58.659Z,78.55
2023-02-11T19:29:32.775Z,78.84
2023-02-11T19:32:09.029Z,78.77
2023-02-11T19:34:43.499Z,78.82
2023-02-11T19:37:21.367Z,78.98
2023-02-11T19:39:53.430Z,78.94
2023-02-11T19:42:31.516Z,79.07
2023-02-11T19:45:09.126Z,78.83
2023-02-11T19:47:46.821Z,78.69
2023-02-11T19:50:24.158Z,78.75
2023-02-11T19:52:56.436Z,78.86
2023-02-11T19:55:27.975Z,78.88
2023-02-11T19:57:59.537Z,78.84
2023-02-11T20:00:37.523Z,78.61
2023-02-11T20:03:15.439Z,78.52
2023-02-11T20:05:53.824Z,78.52
2023-02-11T20:08:33.385Z,78.47
2023-02-11T20:11:18.260Z,78.46
2023-02-11T20:13:53.941Z,78.53
2023-02-11T20:16:47.041Z,78.51
2023-02-11T20:19:24.732Z,78.58
2023-02-11T20:21:56.251Z,78.63
2023-02-11T20:24:34.652Z,78.76
2023-02-11T20:27:12.759Z,78.56
2023-02-11T20:29:50.758Z,78.34
2023-02-11T20:32:32.338Z,78.63
2023-02-11T20:35:12.300Z,78.54
2023-02-11T20:37:49.856Z,78.51
2023-02-11T20:40:28.195Z,78.49
2023-02-11T20:43:06.484Z,78.32
2023-02-11T20:45:44.537Z,78.24
2023-02-11T20:48:16.158Z,78.27
2023-02-11T20:50:48.768Z,78.37
2023-02-11T20:53:24.868Z,78.31
2023-02-11T20:55:58.578Z,78.53
2023-02-11T20:58:38.547Z,78.53
2023-02-11T21:01:32.844Z,78.36
2023-02-11T21:04:31.387Z,78.20
2023-02-11T21:07:11.352Z,78.28
2023-02-11T21:09:48.907Z,78.09
2023-02-11T21:12:27.172Z,77.90
2023-02-11T21:14:58.792Z,77.64
2023-02-11T21:17:32.688Z,77.63
2023-02-11T21:20:06.659Z,77.25
2023-02-11T21:22:44.890Z,75.57
2023-02-11T21:25:23.954Z,73.63
2023-02-11T21:27:56.008Z,72.53
2023-02-11T21:30:35.476Z,71.97
2023-02-11T21:33:13.668Z,71.50
2023-02-11T21:35:51.418Z,71.11
2023-02-11T21:38:23.237Z,71.24
2023-02-11T21:40:55.708Z,70.21
2023-02-11T21:43:27.749Z,70.72
2023-02-11T21:45:58.546Z,70.53
2023-02-11T21:48:29.113Z,70.42
2023-02-11T21:51:12.009Z,69.81
2023-02-11T21:53:49.496Z,70.05
2023-02-11T21:56:20.405Z,70.37
2023-02-11T21:58:58.586Z,70.00
2023-02-11T22:01:33.820Z,70.23
2023-02-11T22:04:08.676Z,70.08
2023-02-11T22:06:46.965Z,69.40
2023-02-11T22:09:24.583Z,69.45
2023-02-11T22:11:57.692Z,69.25
2023-02-11T22:14:35.525Z,69.51
2023-02-11T22:17:14.306Z,69.13
2023-02-11T22:19:51.789Z,69.21
2023-02-11T22:22:30.207Z,69.20
2023-02-11T22:25:02.703Z,68.90
2023-02-11T22:27:41.277Z,69.13
2023-02-11T22:30:13.771Z,69.19
2023-02-11T22:32:50.412Z,69.60
2023-02-11T22:35:27.978Z,69.63
2023-02-11T22:38:00.723Z,69.97
2023-02-11T22:40:43.027Z,69.90
2023-02-11T22:43:21.828Z,69.62
2023-02-11T22:46:01.258Z,70.03
2023-02-11T22:48:32.373Z,70.17
2023-02-11T22:51:17.583Z,70.22
2023-02-11T22:53:59.138Z,69.36
2023-02-11T22:56:36.625Z,68.64
2023-02-11T22:59:16.486Z,67.71
2023-02-11T23:01:47.925Z,67.09
2023-02-11T23:04:25.640Z,67.02
2023-02-11T23:06:59.423Z,66.65
2023-02-11T23:09:32.672Z,66.69
2023-02-11T23:12:09.517Z,66.66
2023-02-11T23:14:47.500Z,67.50
2023-02-11T23:17:24.874Z,67.51
2023-02-11T23:19:59.710Z,67.02
2023-02-11T23:22:37.906Z,67.30
2023-02-11T23:25:14.849Z,67.70
2023-02-11T23:27:52.579Z,67.55
2023-02-11T23:30:52.299Z,67.11
2023-02-11T23:33:29.956Z,67.19
2023-02-11T23:36:01.451Z,67.83
2023-02-11T23:38:39.146Z,67.84
2023-02-11T23:41:18.172Z,67.70
2023-02-11T23:43:58.353Z,67.60
2023-02-11T23:46:35.711Z,67.13
2023-02-11T23:49:13.327Z,67.32
2023-02-11T23:51:43.926Z,66.95
2023-02-11T23:54:15.691Z,67.19
2023-02-11T23:56:51.147Z,67.74
2023-02-11T23:59:29.798Z,68.19
